sensor_id;sensor_type;location;lat;lon;timestamp;P1;durP1;ratioP1;P2;durP2;ratioP2
52848;SDS011;38714;53.180;5.812;2023-06-22T00:00:00;21.35;;;11.15;;
52848;SDS011;38714;53.180;5.812;2023-06-22T00:02:26;20.75;;;10.40;;
52848;SDS011;38714;53.180;5.812;2023-06-22T00:04:51;17.23;;;9.80;;
52848;SDS011;38714;53.180;5.812;2023-06-22T00:07:17;21.85;;;12.45;;
52848;SDS011;38714;53.180;5.812;2023-06-22T00:09:42;19.67;;;10.88;;
52848;SDS011;38714;53.180;5.812;2023-06-22T00:12:08;21.25;;;11.23;;
52848;SDS011;38714;53.180;5.812;2023-06-22T00:14:33;21.17;;;11.65;;
52848;SDS011;38714;53.180;5.812;2023-06-22T00:16:59;20.85;;;11.20;;
52848;SDS011;38714;53.180;5.812;2023-06-22T00:19:25;24.17;;;10.25;;
52848;SDS011;38714;53.180;5.812;2023-06-22T00:21:50;17.60;;;10.65;;
52848;SDS011;38714;53.180;5.812;2023-06-22T00:24:19;21.33;;;11.25;;
52848;SDS011;38714;53.180;5.812;2023-06-22T00:26:45;18.20;;;10.48;;
52848;SDS011;38714;53.180;5.812;2023-06-22T00:29:10;21.60;;;11.23;;
52848;SDS011;38714;53.180;5.812;2023-06-22T00:31:36;19.48;;;11.82;;
52848;SDS011;38714;53.180;5.812;2023-06-22T00:34:02;17.27;;;10.52;;
52848;SDS011;38714;53.180;5.812;2023-06-22T00:36:27;18.73;;;10.43;;
52848;SDS011;38714;53.180;5.812;2023-06-22T00:38:53;21.02;;;10.30;;
52848;SDS011;38714;53.180;5.812;2023-06-22T00:41:18;19.85;;;10.82;;
52848;SDS011;38714;53.180;5.812;2023-06-22T00:43:44;17.15;;;10.52;;
52848;SDS011;38714;53.180;5.812;2023-06-22T00:46:10;14.07;;;8.75;;
52848;SDS011;38714;53.180;5.812;2023-06-22T00:48:36;14.68;;;8.35;;
52848;SDS011;38714;53.180;5.812;2023-06-22T00:51:02;13.98;;;8.07;;
52848;SDS011;38714;53.180;5.812;2023-06-22T00:53:28;11.68;;;7.03;;
52848;SDS011;38714;53.180;5.812;2023-06-22T00:55:53;10.02;;;6.38;;
52848;SDS011;38714;53.180;5.812;2023-06-22T00:58:20;7.03;;;5.35;;
52848;SDS011;38714;53.180;5.812;2023-06-22T01:00:47;10.65;;;7.40;;
52848;SDS011;38714;53.180;5.812;2023-06-22T01:03:13;12.30;;;7.07;;
52848;SDS011;38714;53.180;5.812;2023-06-22T01:05:39;11.77;;;7.90;;
52848;SDS011;38714;53.180;5.812;2023-06-22T01:10:44;14.82;;;9.65;;
52848;SDS011;38714;53.180;5.812;2023-06-22T01:16:19;11.18;;;8.15;;
52848;SDS011;38714;53.180;5.812;2023-06-22T01:18:46;12.13;;;8.30;;
52848;SDS011;38714;53.180;5.812;2023-06-22T01:21:16;12.82;;;8.27;;
52848;SDS011;38714;53.180;5.812;2023-06-22T01:26:38;15.18;;;9.75;;
52848;SDS011;38714;53.180;5.812;2023-06-22T01:29:05;13.57;;;8.35;;
52848;SDS011;38714;53.180;5.812;2023-06-22T01:31:33;12.35;;;8.40;;
52848;SDS011;38714;53.180;5.812;2023-06-22T01:34:01;14.00;;;8.65;;
52848;SDS011;38714;53.180;5.812;2023-06-22T01:36:29;13.32;;;9.00;;
52848;SDS011;38714;53.180;5.812;2023-06-22T01:38:56;12.80;;;8.48;;
52848;SDS011;38714;53.180;5.812;2023-06-22T01:41:25;16.35;;;9.85;;
52848;SDS011;38714;53.180;5.812;2023-06-22T01:43:52;17.13;;;9.70;;
52848;SDS011;38714;53.180;5.812;2023-06-22T01:46:19;14.60;;;9.82;;
52848;SDS011;38714;53.180;5.812;2023-06-22T01:48:46;16.17;;;9.75;;
52848;SDS011;38714;53.180;5.812;2023-06-22T01:51:13;16.08;;;10.23;;
52848;SDS011;38714;53.180;5.812;2023-06-22T01:53:39;15.05;;;10.63;;
52848;SDS011;38714;53.180;5.812;2023-06-22T01:56:05;15.82;;;10.13;;
52848;SDS011;38714;53.180;5.812;2023-06-22T01:58:31;18.25;;;10.82;;
52848;SDS011;38714;53.180;5.812;2023-06-22T02:01:11;21.10;;;11.50;;
52848;SDS011;38714;53.180;5.812;2023-06-22T02:03:43;16.20;;;10.40;;
52848;SDS011;38714;53.180;5.812;2023-06-22T02:06:17;16.92;;;9.35;;
52848;SDS011;38714;53.180;5.812;2023-06-22T02:08:49;18.30;;;11.38;;
52848;SDS011;38714;53.180;5.812;2023-06-22T02:11:22;15.57;;;10.10;;
52848;SDS011;38714;53.180;5.812;2023-06-22T02:13:48;16.77;;;10.82;;
52848;SDS011;38714;53.180;5.812;2023-06-22T02:16:15;18.10;;;10.02;;
52848;SDS011;38714;53.180;5.812;2023-06-22T02:18:49;18.65;;;10.77;;
52848;SDS011;38714;53.180;5.812;2023-06-22T02:21:19;18.45;;;11.30;;
52848;SDS011;38714;53.180;5.812;2023-06-22T02:23:46;16.63;;;10.40;;
52848;SDS011;38714;53.180;5.812;2023-06-22T02:26:12;18.02;;;10.10;;
52848;SDS011;38714;53.180;5.812;2023-06-22T02:28:38;17.75;;;10.75;;
52848;SDS011;38714;53.180;5.812;2023-06-22T02:31:04;16.23;;;10.75;;
52848;SDS011;38714;53.180;5.812;2023-06-22T02:33:29;17.48;;;10.48;;
52848;SDS011;38714;53.180;5.812;2023-06-22T02:35:55;18.98;;;9.75;;
52848;SDS011;38714;53.180;5.812;2023-06-22T02:38:21;17.42;;;10.18;;
52848;SDS011;38714;53.180;5.812;2023-06-22T02:40:49;17.88;;;9.50;;
52848;SDS011;38714;53.180;5.812;2023-06-22T02:43:15;19.05;;;10.80;;
52848;SDS011;38714;53.180;5.812;2023-06-22T02:45:41;19.60;;;10.35;;
52848;SDS011;38714;53.180;5.812;2023-06-22T02:48:06;18.45;;;10.75;;
52848;SDS011;38714;53.180;5.812;2023-06-22T02:50:32;19.65;;;10.27;;
52848;SDS011;38714;53.180;5.812;2023-06-22T02:52:57;18.90;;;10.55;;
52848;SDS011;38714;53.180;5.812;2023-06-22T02:55:23;18.55;;;10.75;;
52848;SDS011;38714;53.180;5.812;2023-06-22T02:57:49;17.42;;;10.93;;
52848;SDS011;38714;53.180;5.812;2023-06-22T03:00:17;18.88;;;11.35;;
52848;SDS011;38714;53.180;5.812;2023-06-22T03:02:44;18.20;;;11.20;;
52848;SDS011;38714;53.180;5.812;2023-06-22T03:05:11;18.67;;;10.30;;
52848;SDS011;38714;53.180;5.812;2023-06-22T03:07:41;20.08;;;10.73;;
52848;SDS011;38714;53.180;5.812;2023-06-22T03:10:11;21.92;;;10.88;;
52848;SDS011;38714;53.180;5.812;2023-06-22T03:12:38;17.33;;;10.90;;
52848;SDS011;38714;53.180;5.812;2023-06-22T03:15:07;19.17;;;11.00;;
52848;SDS011;38714;53.180;5.812;2023-06-22T03:17:35;16.80;;;10.60;;
52848;SDS011;38714;53.180;5.812;2023-06-22T03:20:02;16.23;;;9.93;;
52848;SDS011;38714;53.180;5.812;2023-06-22T03:22:38;15.23;;;9.80;;
52848;SDS011;38714;53.180;5.812;2023-06-22T03:25:04;19.13;;;10.77;;
52848;SDS011;38714;53.180;5.812;2023-06-22T03:27:36;15.07;;;10.30;;
52848;SDS011;38714;53.180;5.812;2023-06-22T03:30:02;19.73;;;11.10;;
52848;SDS011;38714;53.180;5.812;2023-06-22T03:32:28;17.58;;;11.60;;
52848;SDS011;38714;53.180;5.812;2023-06-22T03:34:54;17.80;;;10.82;;
52848;SDS011;38714;53.180;5.812;2023-06-22T03:37:21;15.50;;;9.88;;
52848;SDS011;38714;53.180;5.812;2023-06-22T03:39:47;15.55;;;9.70;;
52848;SDS011;38714;53.180;5.812;2023-06-22T03:42:15;15.88;;;10.30;;
52848;SDS011;38714;53.180;5.812;2023-06-22T03:44:40;16.40;;;9.68;;
52848;SDS011;38714;53.180;5.812;2023-06-22T03:47:06;16.05;;;9.70;;
52848;SDS011;38714;53.180;5.812;2023-06-22T03:49:32;16.05;;;10.63;;
52848;SDS011;38714;53.180;5.812;2023-06-22T03:51:59;14.30;;;10.30;;
52848;SDS011;38714;53.180;5.812;2023-06-22T03:54:27;14.40;;;10.05;;
52848;SDS011;38714;53.180;5.812;2023-06-22T03:56:54;17.58;;;9.82;;
52848;SDS011;38714;53.180;5.812;2023-06-22T03:59:20;15.20;;;9.65;;
52848;SDS011;38714;53.180;5.812;2023-06-22T04:01:45;14.82;;;9.90;;
52848;SDS011;38714;53.180;5.812;2023-06-22T04:04:11;14.30;;;9.25;;
52848;SDS011;38714;53.180;5.812;2023-06-22T04:06:37;14.52;;;9.45;;
52848;SDS011;38714;53.180;5.812;2023-06-22T04:09:03;15.35;;;10.27;;
52848;SDS011;38714;53.180;5.812;2023-06-22T04:11:30;15.32;;;10.00;;
52848;SDS011;38714;53.180;5.812;2023-06-22T04:13:56;17.98;;;9.43;;
52848;SDS011;38714;53.180;5.812;2023-06-22T04:16:21;18.20;;;10.48;;
52848;SDS011;38714;53.180;5.812;2023-06-22T04:18:47;16.30;;;10.52;;
52848;SDS011;38714;53.180;5.812;2023-06-22T04:21:13;19.70;;;10.38;;
52848;SDS011;38714;53.180;5.812;2023-06-22T04:23:39;15.48;;;9.48;;
52848;SDS011;38714;53.180;5.812;2023-06-22T04:26:04;15.43;;;10.48;;
52848;SDS011;38714;53.180;5.812;2023-06-22T04:28:30;16.65;;;9.82;;
52848;SDS011;38714;53.180;5.812;2023-06-22T04:31:03;17.10;;;10.00;;
52848;SDS011;38714;53.180;5.812;2023-06-22T04:33:29;16.75;;;9.80;;
52848;SDS011;38714;53.180;5.812;2023-06-22T04:35:56;15.43;;;9.88;;
52848;SDS011;38714;53.180;5.812;2023-06-22T04:38:28;14.90;;;10.00;;
52848;SDS011;38714;53.180;5.812;2023-06-22T04:40:58;15.63;;;10.00;;
52848;SDS011;38714;53.180;5.812;2023-06-22T04:43:23;10.43;;;8.10;;
52848;SDS011;38714;53.180;5.812;2023-06-22T04:45:49;13.43;;;9.20;;
52848;SDS011;38714;53.180;5.812;2023-06-22T04:48:17;14.68;;;9.38;;
52848;SDS011;38714;53.180;5.812;2023-06-22T04:50:43;14.02;;;9.43;;
52848;SDS011;38714;53.180;5.812;2023-06-22T04:53:09;17.00;;;9.70;;
52848;SDS011;38714;53.180;5.812;2023-06-22T04:55:37;14.60;;;10.15;;
52848;SDS011;38714;53.180;5.812;2023-06-22T04:58:06;20.40;;;11.43;;
52848;SDS011;38714;53.180;5.812;2023-06-22T05:00:32;17.75;;;11.00;;
52848;SDS011;38714;53.180;5.812;2023-06-22T05:03:01;19.05;;;10.25;;
52848;SDS011;38714;53.180;5.812;2023-06-22T05:05:28;19.42;;;10.80;;
52848;SDS011;38714;53.180;5.812;2023-06-22T05:07:56;17.85;;;10.68;;
52848;SDS011;38714;53.180;5.812;2023-06-22T05:10:24;21.05;;;10.90;;
52848;SDS011;38714;53.180;5.812;2023-06-22T05:12:50;19.20;;;10.80;;
52848;SDS011;38714;53.180;5.812;2023-06-22T05:15:16;18.65;;;10.80;;
52848;SDS011;38714;53.180;5.812;2023-06-22T05:17:44;19.70;;;11.35;;
52848;SDS011;38714;53.180;5.812;2023-06-22T05:20:10;20.35;;;11.77;;
52848;SDS011;38714;53.180;5.812;2023-06-22T05:22:36;20.27;;;11.38;;
52848;SDS011;38714;53.180;5.812;2023-06-22T05:25:02;19.48;;;11.48;;
52848;SDS011;38714;53.180;5.812;2023-06-22T05:27:28;21.23;;;12.27;;
52848;SDS011;38714;53.180;5.812;2023-06-22T05:29:54;21.33;;;11.82;;
52848;SDS011;38714;53.180;5.812;2023-06-22T05:32:19;21.35;;;13.00;;
52848;SDS011;38714;53.180;5.812;2023-06-22T05:34:45;23.05;;;12.90;;
52848;SDS011;38714;53.180;5.812;2023-06-22T05:37:11;19.83;;;12.25;;
52848;SDS011;38714;53.180;5.812;2023-06-22T05:39:37;21.25;;;11.57;;
52848;SDS011;38714;53.180;5.812;2023-06-22T05:42:06;23.33;;;11.65;;
52848;SDS011;38714;53.180;5.812;2023-06-22T05:44:33;24.42;;;12.32;;
52848;SDS011;38714;53.180;5.812;2023-06-22T05:46:58;20.25;;;10.60;;
52848;SDS011;38714;53.180;5.812;2023-06-22T05:49:24;20.95;;;10.98;;
52848;SDS011;38714;53.180;5.812;2023-06-22T05:51:54;19.13;;;11.60;;
52848;SDS011;38714;53.180;5.812;2023-06-22T05:54:21;19.27;;;11.43;;
52848;SDS011;38714;53.180;5.812;2023-06-22T05:56:47;25.85;;;13.35;;
52848;SDS011;38714;53.180;5.812;2023-06-22T05:59:12;21.92;;;11.48;;
52848;SDS011;38714;53.180;5.812;2023-06-22T06:01:38;23.45;;;13.13;;
52848;SDS011;38714;53.180;5.812;2023-06-22T06:04:05;22.48;;;11.88;;
52848;SDS011;38714;53.180;5.812;2023-06-22T06:06:33;18.58;;;11.20;;
52848;SDS011;38714;53.180;5.812;2023-06-22T06:09:00;21.33;;;12.23;;
52848;SDS011;38714;53.180;5.812;2023-06-22T06:11:25;17.98;;;11.65;;
52848;SDS011;38714;53.180;5.812;2023-06-22T06:13:51;18.05;;;11.20;;
52848;SDS011;38714;53.180;5.812;2023-06-22T06:16:17;18.05;;;11.80;;
52848;SDS011;38714;53.180;5.812;2023-06-22T06:18:43;17.85;;;10.65;;
52848;SDS011;38714;53.180;5.812;2023-06-22T06:21:08;17.40;;;10.48;;
52848;SDS011;38714;53.180;5.812;2023-06-22T06:23:34;17.85;;;10.07;;
52848;SDS011;38714;53.180;5.812;2023-06-22T06:25:59;15.25;;;9.93;;
52848;SDS011;38714;53.180;5.812;2023-06-22T06:28:26;16.73;;;10.13;;
52848;SDS011;38714;53.180;5.812;2023-06-22T06:30:52;18.00;;;9.82;;
52848;SDS011;38714;53.180;5.812;2023-06-22T06:33:18;16.42;;;10.38;;
52848;SDS011;38714;53.180;5.812;2023-06-22T06:35:44;16.85;;;10.77;;
52848;SDS011;38714;53.180;5.812;2023-06-22T06:38:09;19.60;;;11.10;;
52848;SDS011;38714;53.180;5.812;2023-06-22T06:40:35;23.00;;;10.65;;
52848;SDS011;38714;53.180;5.812;2023-06-22T06:43:01;17.90;;;10.60;;
52848;SDS011;38714;53.180;5.812;2023-06-22T06:45:26;20.45;;;11.88;;
52848;SDS011;38714;53.180;5.812;2023-06-22T06:47:53;18.65;;;11.40;;
52848;SDS011;38714;53.180;5.812;2023-06-22T06:50:19;22.70;;;12.35;;
52848;SDS011;38714;53.180;5.812;2023-06-22T06:52:45;21.55;;;12.52;;
52848;SDS011;38714;53.180;5.812;2023-06-22T06:55:10;21.67;;;12.85;;
52848;SDS011;38714;53.180;5.812;2023-06-22T06:57:39;26.27;;;12.50;;
52848;SDS011;38714;53.180;5.812;2023-06-22T07:00:07;25.77;;;13.32;;
52848;SDS011;38714;53.180;5.812;2023-06-22T07:02:37;30.77;;;13.75;;
52848;SDS011;38714;53.180;5.812;2023-06-22T07:05:04;25.90;;;12.65;;
52848;SDS011;38714;53.180;5.812;2023-06-22T07:07:30;22.88;;;13.20;;
52848;SDS011;38714;53.180;5.812;2023-06-22T07:09:56;20.95;;;12.55;;
52848;SDS011;38714;53.180;5.812;2023-06-22T07:12:22;23.52;;;12.18;;
52848;SDS011;38714;53.180;5.812;2023-06-22T07:14:48;19.63;;;12.13;;
52848;SDS011;38714;53.180;5.812;2023-06-22T07:17:15;19.63;;;12.52;;
52848;SDS011;38714;53.180;5.812;2023-06-22T07:19:40;19.30;;;13.23;;
52848;SDS011;38714;53.180;5.812;2023-06-22T07:22:07;22.58;;;12.18;;
52848;SDS011;38714;53.180;5.812;2023-06-22T07:24:33;22.77;;;12.73;;
52848;SDS011;38714;53.180;5.812;2023-06-22T07:26:58;23.15;;;13.57;;
52848;SDS011;38714;53.180;5.812;2023-06-22T07:29:24;22.90;;;11.93;;
52848;SDS011;38714;53.180;5.812;2023-06-22T07:31:51;18.75;;;11.35;;
52848;SDS011;38714;53.180;5.812;2023-06-22T07:34:17;20.92;;;12.00;;
52848;SDS011;38714;53.180;5.812;2023-06-22T07:36:43;19.65;;;11.57;;
52848;SDS011;38714;53.180;5.812;2023-06-22T07:39:10;18.88;;;11.10;;
52848;SDS011;38714;53.180;5.812;2023-06-22T07:41:35;20.50;;;11.10;;
52848;SDS011;38714;53.180;5.812;2023-06-22T07:44:02;17.48;;;10.60;;
52848;SDS011;38714;53.180;5.812;2023-06-22T07:46:28;17.73;;;10.77;;
52848;SDS011;38714;53.180;5.812;2023-06-22T07:48:55;18.45;;;11.05;;
52848;SDS011;38714;53.180;5.812;2023-06-22T07:51:22;15.40;;;9.18;;
52848;SDS011;38714;53.180;5.812;2023-06-22T07:53:48;15.48;;;9.00;;
52848;SDS011;38714;53.180;5.812;2023-06-22T07:56:14;18.65;;;10.18;;
52848;SDS011;38714;53.180;5.812;2023-06-22T07:58:44;17.92;;;9.82;;
52848;SDS011;38714;53.180;5.812;2023-06-22T08:01:10;16.70;;;9.70;;
52848;SDS011;38714;53.180;5.812;2023-06-22T08:03:36;15.02;;;9.40;;
52848;SDS011;38714;53.180;5.812;2023-06-22T08:06:02;14.30;;;7.97;;
52848;SDS011;38714;53.180;5.812;2023-06-22T08:08:28;12.57;;;7.95;;
52848;SDS011;38714;53.180;5.812;2023-06-22T08:10:54;13.40;;;8.05;;
52848;SDS011;38714;53.180;5.812;2023-06-22T08:13:19;16.90;;;9.32;;
52848;SDS011;38714;53.180;5.812;2023-06-22T08:15:45;15.45;;;8.05;;
52848;SDS011;38714;53.180;5.812;2023-06-22T08:18:11;16.80;;;8.80;;
52848;SDS011;38714;53.180;5.812;2023-06-22T08:20:36;12.23;;;7.13;;
52848;SDS011;38714;53.180;5.812;2023-06-22T08:23:02;11.32;;;6.95;;
52848;SDS011;38714;53.180;5.812;2023-06-22T08:25:32;14.68;;;8.57;;
52848;SDS011;38714;53.180;5.812;2023-06-22T08:27:58;12.27;;;7.45;;
52848;SDS011;38714;53.180;5.812;2023-06-22T08:30:24;15.00;;;7.93;;
52848;SDS011;38714;53.180;5.812;2023-06-22T08:32:50;16.05;;;7.32;;
52848;SDS011;38714;53.180;5.812;2023-06-22T08:35:16;13.75;;;7.82;;
52848;SDS011;38714;53.180;5.812;2023-06-22T08:37:41;14.32;;;7.53;;
52848;SDS011;38714;53.180;5.812;2023-06-22T08:40:08;12.60;;;8.52;;
52848;SDS011;38714;53.180;5.812;2023-06-22T08:42:39;14.40;;;8.07;;
52848;SDS011;38714;53.180;5.812;2023-06-22T08:45:05;12.23;;;6.90;;
52848;SDS011;38714;53.180;5.812;2023-06-22T08:47:31;11.25;;;5.90;;
52848;SDS011;38714;53.180;5.812;2023-06-22T08:49:57;11.85;;;7.53;;
52848;SDS011;38714;53.180;5.812;2023-06-22T08:52:23;9.88;;;6.75;;
52848;SDS011;38714;53.180;5.812;2023-06-22T08:54:49;12.15;;;6.70;;
52848;SDS011;38714;53.180;5.812;2023-06-22T08:57:16;10.82;;;7.03;;
52848;SDS011;38714;53.180;5.812;2023-06-22T08:59:42;10.75;;;6.15;;
52848;SDS011;38714;53.180;5.812;2023-06-22T09:02:07;10.95;;;6.88;;
52848;SDS011;38714;53.180;5.812;2023-06-22T09:04:34;12.23;;;7.15;;
52848;SDS011;38714;53.180;5.812;2023-06-22T09:07:00;7.82;;;6.20;;
52848;SDS011;38714;53.180;5.812;2023-06-22T09:09:26;6.95;;;4.10;;
52848;SDS011;38714;53.180;5.812;2023-06-22T09:11:52;8.75;;;5.13;;
52848;SDS011;38714;53.180;5.812;2023-06-22T09:14:17;6.93;;;4.80;;
52848;SDS011;38714;53.180;5.812;2023-06-22T09:16:43;11.05;;;6.55;;
52848;SDS011;38714;53.180;5.812;2023-06-22T09:19:09;12.85;;;6.53;;
52848;SDS011;38714;53.180;5.812;2023-06-22T09:21:34;14.68;;;6.90;;
52848;SDS011;38714;53.180;5.812;2023-06-22T09:24:00;8.32;;;5.72;;
52848;SDS011;38714;53.180;5.812;2023-06-22T09:26:26;10.45;;;5.80;;
52848;SDS011;38714;53.180;5.812;2023-06-22T09:28:51;15.57;;;5.68;;
52848;SDS011;38714;53.180;5.812;2023-06-22T09:31:17;10.95;;;6.53;;
52848;SDS011;38714;53.180;5.812;2023-06-22T09:33:50;7.32;;;5.07;;
52848;SDS011;38714;53.180;5.812;2023-06-22T09:36:19;8.77;;;5.68;;
52848;SDS011;38714;53.180;5.812;2023-06-22T09:38:45;8.60;;;5.38;;
52848;SDS011;38714;53.180;5.812;2023-06-22T09:41:12;12.27;;;6.88;;
52848;SDS011;38714;53.180;5.812;2023-06-22T09:43:37;11.30;;;6.57;;
52848;SDS011;38714;53.180;5.812;2023-06-22T09:46:03;12.52;;;6.25;;
52848;SDS011;38714;53.180;5.812;2023-06-22T09:48:29;9.05;;;5.15;;
52848;SDS011;38714;53.180;5.812;2023-06-22T09:50:55;7.82;;;4.80;;
52848;SDS011;38714;53.180;5.812;2023-06-22T09:53:21;8.40;;;5.20;;
52848;SDS011;38714;53.180;5.812;2023-06-22T09:55:47;10.70;;;5.32;;
52848;SDS011;38714;53.180;5.812;2023-06-22T09:58:12;9.10;;;5.22;;
52848;SDS011;38714;53.180;5.812;2023-06-22T10:00:38;7.88;;;5.25;;
52848;SDS011;38714;53.180;5.812;2023-06-22T10:03:04;9.55;;;5.43;;
52848;SDS011;38714;53.180;5.812;2023-06-22T10:05:29;10.82;;;5.78;;
52848;SDS011;38714;53.180;5.812;2023-06-22T10:07:55;7.45;;;5.00;;
52848;SDS011;38714;53.180;5.812;2023-06-22T10:10:21;9.57;;;5.63;;
52848;SDS011;38714;53.180;5.812;2023-06-22T10:12:47;11.20;;;6.10;;
52848;SDS011;38714;53.180;5.812;2023-06-22T10:15:20;8.70;;;6.03;;
52848;SDS011;38714;53.180;5.812;2023-06-22T10:17:46;9.48;;;5.78;;
52848;SDS011;38714;53.180;5.812;2023-06-22T10:20:12;9.38;;;6.50;;
52848;SDS011;38714;53.180;5.812;2023-06-22T10:22:39;9.95;;;6.10;;
52848;SDS011;38714;53.180;5.812;2023-06-22T10:25:08;8.88;;;6.28;;
52848;SDS011;38714;53.180;5.812;2023-06-22T10:27:35;10.52;;;6.07;;
52848;SDS011;38714;53.180;5.812;2023-06-22T10:30:01;11.18;;;5.78;;
52848;SDS011;38714;53.180;5.812;2023-06-22T10:32:27;6.20;;;4.45;;
52848;SDS011;38714;53.180;5.812;2023-06-22T10:34:55;8.98;;;5.70;;
52848;SDS011;38714;53.180;5.812;2023-06-22T10:37:21;9.32;;;5.75;;
52848;SDS011;38714;53.180;5.812;2023-06-22T10:39:47;9.63;;;6.03;;
52848;SDS011;38714;53.180;5.812;2023-06-22T10:42:13;8.10;;;5.07;;
52848;SDS011;38714;53.180;5.812;2023-06-22T10:44:39;10.25;;;5.70;;
52848;SDS011;38714;53.180;5.812;2023-06-22T10:47:06;8.93;;;5.38;;
52848;SDS011;38714;53.180;5.812;2023-06-22T10:49:32;7.18;;;5.25;;
52848;SDS011;38714;53.180;5.812;2023-06-22T10:51:57;9.52;;;5.60;;
52848;SDS011;38714;53.180;5.812;2023-06-22T10:54:23;7.05;;;5.18;;
52848;SDS011;38714;53.180;5.812;2023-06-22T10:56:48;8.00;;;4.55;;
52848;SDS011;38714;53.180;5.812;2023-06-22T10:59:14;7.30;;;5.10;;
52848;SDS011;38714;53.180;5.812;2023-06-22T11:01:41;8.35;;;3.90;;
52848;SDS011;38714;53.180;5.812;2023-06-22T11:04:06;5.57;;;4.60;;
52848;SDS011;38714;53.180;5.812;2023-06-22T11:06:32;5.85;;;4.45;;
52848;SDS011;38714;53.180;5.812;2023-06-22T11:08:58;7.70;;;4.82;;
52848;SDS011;38714;53.180;5.812;2023-06-22T11:11:25;4.38;;;3.63;;
52848;SDS011;38714;53.180;5.812;2023-06-22T11:13:50;7.18;;;4.18;;
52848;SDS011;38714;53.180;5.812;2023-06-22T11:16:17;9.15;;;4.93;;
52848;SDS011;38714;53.180;5.812;2023-06-22T11:18:42;8.07;;;5.15;;
52848;SDS011;38714;53.180;5.812;2023-06-22T11:21:08;8.00;;;4.75;;
52848;SDS011;38714;53.180;5.812;2023-06-22T11:23:34;9.98;;;4.32;;
52848;SDS011;38714;53.180;5.812;2023-06-22T11:25:59;7.78;;;4.32;;
52848;SDS011;38714;53.180;5.812;2023-06-22T11:28:25;6.95;;;4.35;;
52848;SDS011;38714;53.180;5.812;2023-06-22T11:30:51;6.30;;;3.85;;
52848;SDS011;38714;53.180;5.812;2023-06-22T11:33:16;7.38;;;5.25;;
52848;SDS011;38714;53.180;5.812;2023-06-22T11:35:42;8.48;;;5.90;;
52848;SDS011;38714;53.180;5.812;2023-06-22T11:38:08;7.68;;;4.93;;
52848;SDS011;38714;53.180;5.812;2023-06-22T11:40:33;9.95;;;4.32;;
52848;SDS011;38714;53.180;5.812;2023-06-22T11:42:59;5.57;;;3.60;;
52848;SDS011;38714;53.180;5.812;2023-06-22T11:45:25;5.85;;;3.90;;
52848;SDS011;38714;53.180;5.812;2023-06-22T11:47:50;6.60;;;3.83;;
52848;SDS011;38714;53.180;5.812;2023-06-22T11:50:16;5.85;;;3.80;;
52848;SDS011;38714;53.180;5.812;2023-06-22T11:52:42;6.03;;;3.88;;
52848;SDS011;38714;53.180;5.812;2023-06-22T11:55:08;4.30;;;3.22;;
52848;SDS011;38714;53.180;5.812;2023-06-22T11:57:35;5.07;;;3.63;;
52848;SDS011;38714;53.180;5.812;2023-06-22T12:00:02;4.93;;;3.53;;
52848;SDS011;38714;53.180;5.812;2023-06-22T12:02:31;6.03;;;3.60;;
52848;SDS011;38714;53.180;5.812;2023-06-22T12:04:57;6.03;;;3.95;;
52848;SDS011;38714;53.180;5.812;2023-06-22T12:07:23;6.47;;;4.13;;
52848;SDS011;38714;53.180;5.812;2023-06-22T12:09:49;6.75;;;3.83;;
52848;SDS011;38714;53.180;5.812;2023-06-22T12:12:14;4.82;;;3.53;;
52848;SDS011;38714;53.180;5.812;2023-06-22T12:14:40;6.10;;;4.03;;
52848;SDS011;38714;53.180;5.812;2023-06-22T12:17:06;7.97;;;3.42;;
52848;SDS011;38714;53.180;5.812;2023-06-22T12:19:31;4.72;;;3.22;;
52848;SDS011;38714;53.180;5.812;2023-06-22T12:21:57;5.45;;;3.22;;
52848;SDS011;38714;53.180;5.812;2023-06-22T12:24:23;4.38;;;3.08;;
52848;SDS011;38714;53.180;5.812;2023-06-22T12:26:48;3.55;;;2.92;;
52848;SDS011;38714;53.180;5.812;2023-06-22T12:29:14;4.75;;;2.70;;
52848;SDS011;38714;53.180;5.812;2023-06-22T12:31:40;5.57;;;2.50;;
52848;SDS011;38714;53.180;5.812;2023-06-22T12:34:06;6.53;;;2.50;;
52848;SDS011;38714;53.180;5.812;2023-06-22T12:36:32;2.45;;;2.08;;
52848;SDS011;38714;53.180;5.812;2023-06-22T12:38:57;4.55;;;1.95;;
52848;SDS011;38714;53.180;5.812;2023-06-22T12:41:23;4.72;;;2.15;;
52848;SDS011;38714;53.180;5.812;2023-06-22T12:43:49;5.35;;;2.40;;
52848;SDS011;38714;53.180;5.812;2023-06-22T12:46:14;2.15;;;1.70;;
52848;SDS011;38714;53.180;5.812;2023-06-22T12:48:40;3.13;;;2.20;;
52848;SDS011;38714;53.180;5.812;2023-06-22T12:51:08;3.80;;;2.05;;
52848;SDS011;38714;53.180;5.812;2023-06-22T12:53:35;4.22;;;1.90;;
52848;SDS011;38714;53.180;5.812;2023-06-22T12:56:00;3.33;;;2.20;;
52848;SDS011;38714;53.180;5.812;2023-06-22T12:58:26;1.95;;;1.67;;
52848;SDS011;38714;53.180;5.812;2023-06-22T13:00:52;3.03;;;1.80;;
52848;SDS011;38714;53.180;5.812;2023-06-22T13:03:17;2.65;;;1.65;;
52848;SDS011;38714;53.180;5.812;2023-06-22T13:05:43;2.00;;;1.80;;
52848;SDS011;38714;53.180;5.812;2023-06-22T13:08:09;1.60;;;1.50;;
52848;SDS011;38714;53.180;5.812;2023-06-22T13:10:36;2.17;;;1.80;;
52848;SDS011;38714;53.180;5.812;2023-06-22T13:13:01;1.60;;;1.50;;
52848;SDS011;38714;53.180;5.812;2023-06-22T13:15:30;6.78;;;1.77;;
52848;SDS011;38714;53.180;5.812;2023-06-22T13:17:55;1.45;;;1.25;;
52848;SDS011;38714;53.180;5.812;2023-06-22T13:20:21;3.20;;;1.40;;
52848;SDS011;38714;53.180;5.812;2023-06-22T13:22:47;2.15;;;1.30;;
52848;SDS011;38714;53.180;5.812;2023-06-22T13:25:12;1.58;;;1.15;;
52848;SDS011;38714;53.180;5.812;2023-06-22T13:27:41;1.90;;;1.20;;
52848;SDS011;38714;53.180;5.812;2023-06-22T13:30:08;1.33;;;1.10;;
52848;SDS011;38714;53.180;5.812;2023-06-22T13:32:34;1.38;;;1.27;;
52848;SDS011;38714;53.180;5.812;2023-06-22T13:34:59;2.65;;;1.13;;
52848;SDS011;38714;53.180;5.812;2023-06-22T13:37:25;3.25;;;0.90;;
52848;SDS011;38714;53.180;5.812;2023-06-22T13:39:52;2.22;;;0.90;;
52848;SDS011;38714;53.180;5.812;2023-06-22T13:42:17;1.85;;;0.70;;
52848;SDS011;38714;53.180;5.812;2023-06-22T13:44:43;1.02;;;0.80;;
52848;SDS011;38714;53.180;5.812;2023-06-22T13:47:09;1.27;;;0.80;;
52848;SDS011;38714;53.180;5.812;2023-06-22T13:49:34;1.10;;;0.77;;
52848;SDS011;38714;53.180;5.812;2023-06-22T13:52:00;3.03;;;1.83;;
52848;SDS011;38714;53.180;5.812;2023-06-22T13:54:28;1.77;;;0.90;;
52848;SDS011;38714;53.180;5.812;2023-06-22T13:56:54;1.58;;;0.98;;
52848;SDS011;38714;53.180;5.812;2023-06-22T13:59:22;1.08;;;0.80;;
52848;SDS011;38714;53.180;5.812;2023-06-22T14:01:48;1.35;;;0.90;;
52848;SDS011;38714;53.180;5.812;2023-06-22T14:04:13;3.05;;;1.23;;
52848;SDS011;38714;53.180;5.812;2023-06-22T14:06:39;1.08;;;0.98;;
52848;SDS011;38714;53.180;5.812;2023-06-22T14:09:05;2.25;;;1.00;;
52848;SDS011;38714;53.180;5.812;2023-06-22T14:11:30;1.67;;;1.10;;
52848;SDS011;38714;53.180;5.812;2023-06-22T14:13:56;1.13;;;0.90;;
52848;SDS011;38714;53.180;5.812;2023-06-22T14:16:21;1.70;;;1.00;;
52848;SDS011;38714;53.180;5.812;2023-06-22T14:18:47;0.80;;;0.80;;
52848;SDS011;38714;53.180;5.812;2023-06-22T14:21:13;1.55;;;0.70;;
52848;SDS011;38714;53.180;5.812;2023-06-22T14:23:39;1.10;;;1.00;;
52848;SDS011;38714;53.180;5.812;2023-06-22T14:26:04;1.17;;;0.90;;
52848;SDS011;38714;53.180;5.812;2023-06-22T14:28:30;1.90;;;0.98;;
52848;SDS011;38714;53.180;5.812;2023-06-22T14:30:55;2.13;;;1.13;;
52848;SDS011;38714;53.180;5.812;2023-06-22T14:33:21;1.60;;;1.10;;
52848;SDS011;38714;53.180;5.812;2023-06-22T14:35:47;0.88;;;0.75;;